Preview of NWS' New Version of Forecast
This preview is not operational and should not be used for support decisions.
Latest weather observations around

DOYLE (DYLC1)

Using English Units (Switch to International System of Units)
Date/ Time (PDT) Wind (mph) Vis. (mi) Weather Sky Cond. Temp (°F) Rel. Humidity Wind Chill (°F) Heat Index (°F) Pressure Precip. (in)
Air Dwpt 6 hour Altimeter (inHg) Sea level (inHg) 1 hr 3 hr 6 hr
Max Min
Jun 19 11:11 NW 6   Clear   80 41     25%   79          
Jun 19 10:11 NW 7   Clear   77 43     30%   76          
Jun 19 09:11 NW 4   Clear   74 43     33%   73          
Jun 19 08:11 NNW 5   Clear   70 45     41%              
Jun 19 07:11 N 4   Clear   68 44     42%              
Jun 19 06:11 NE 6   Clear   61 44     54%              
Jun 19 05:11 ENE 7   Clear   60 43     53%              
Jun 19 04:11 NE 5   Clear   62 41     46%              
Jun 19 03:11 NE 3   Clear   64 41     43%              
Jun 19 02:11 ENE 6   Clear   65 38     37%              
Jun 19 01:11 NNE 4   Clear   67 35     30%              
Jun 19 00:11 NNE 6   Clear   68 34     28%              
Jun 18 23:11 NE 4   Clear   70 38     31%              
Jun 18 22:11 NNE 7   Clear   72 41     32%   70          
Jun 18 21:11 ENE 4   Clear   70 35     28%              
Jun 18 20:11 SSE 1   Clear   81 41     24%   80          
Jun 18 19:11 WNW 6   Clear   87 32     14%   83          
Jun 18 18:11 NW 10   Clear   89 34     14%   85          
Jun 18 17:11 WNW 8   Clear   89 32     13%   85          
Jun 18 16:11 NW 9   Clear   89        %              
Jun 18 15:11 WNW 8   Clear   88 31     13%   84          
Jun 18 14:11 N 8   Clear   87 37     17%   84          
Jun 18 13:11 N 9   Clear   85 38     19%   82          
Jun 18 12:11 NNE 5   Clear   83 39     21%   81          
Jun 18 11:11 WNW 4   Clear   80 40     24%   79          
Jun 18 10:11 NNW 5   Clear   78 41     27%   77          
Jun 18 09:11 NNW 2   Clear   76 41     28%   75          
Jun 18 08:11 NNW 3   Clear   72 41     32%   70          
Jun 18 07:11 NNE 4   Clear   69 43     39%              
Jun 18 06:11 ENE 3   Clear   59 38     46%              
Jun 18 05:11 ENE 7   Clear   60 37     42%              
Jun 18 04:11 ENE 5   Clear   61 36     39%              
Jun 18 03:11 NE 6   Clear   63 35     35%              
Jun 18 02:11 NE 5   Clear   64 37     37%              
Jun 18 01:11 NNE 9   Clear   67 39     36%              
Jun 18 00:11 N 7   Clear   71 42     35%   69          
Jun 17 23:11 NNE 6   Clear   73 42     33%   72          
Jun 17 22:11 NNE 4   Clear   71 45     39%   70          
Jun 17 21:11 N 6   Clear   75 45     34%   74          
Jun 17 20:11 NW 2   Clear   80 42     26%   79          
Jun 17 19:11 WNW 8   Clear   86 38     18%   83          
Jun 17 18:11 NW 8   Clear   88 38     17%   84          
Jun 17 17:11 NE 4   Clear   89 34     14%   85          
Jun 17 16:11     Clear   88 36     16%   84          
Jun 17 15:11 NNW 7   Clear   90 36     15%   86          
Jun 17 14:11 NW 5   Clear   89 37     16%   85          
Jun 17 13:11 NE 10   Clear   87 40     19%   84          
Jun 17 12:11 NNE 5   Clear   84 41     22%   81          
Jun 17 11:11 NNE 7   Clear   81 42     25%   80          
Jun 17 10:11 NNW 5   Clear   78 42     28%   77          
Jun 17 09:11 NW 6   Clear   75 44     33%   74          
Jun 17 08:11 NNW 8   Clear   72 44     37%   71          
Jun 17 07:11 N 5   Clear   69 47     45%              
Jun 17 06:11 NNE 5   Clear   62 44     52%              
Jun 17 05:11 NNE 4   Clear   61 44     54%              
Jun 17 04:11 NNE 6   Clear   64 44     49%              
Jun 17 03:11 NNW 3   Clear   64 43     47%              
Jun 17 02:11 ESE 5   Clear   64 45     50%              
Jun 17 01:11 WSW 2   Clear   71 40     33%   69          
Jun 17 00:11 NNE 6   Clear   73 41     31%   71          
Jun 16 23:11 SE 1   Clear   69 43     39%              
Jun 16 22:11 SSE 3   Clear   69 42     37%              
Jun 16 21:11 E 4   Clear   68 41     38%              
Jun 16 20:11 N 1   Clear   78 42     28%   77          
Jun 16 19:11 E 9   Clear   82 38     21%   80          
Jun 16 18:11 NW 10   Clear   87 32     14%   83          
Jun 16 17:11 WNW 9   Clear   89 35     15%   85          
Jun 16 16:11 NNE 5   Clear   88 38     17%   84          
Jun 16 15:11 N 8   Clear   89 35     15%   85          
Jun 16 14:11 NNE 8   Clear   88 36     16%   84          
Jun 16 13:11 N 7   Clear   86 38     18%   83          
Jun 16 12:11 NNE 6   Clear   83 40     22%   81          
Jun 16 11:11 NE 4   Clear   81 44     27%   80          
Jun 16 10:11 WNW 5   Clear   78 47     33%   77          
Notice The following observation data may not be complete
May 15 07:11     Clear            %              
Notice The following observation data may not be complete
May 14 16:11     Clear            %              
May 14 14:11 NNE 5   Clear   70 34     27%              
May 13 21:11 SSE 5   Clear   56 44     65%              
May 13 05:11 S 1   Clear   47 45     93%              
May 12 19:11 SSE 5   Clear   57 41     56%              
May 12 12:11 NNW 14   Clear   52 37     56%              
May 12 02:11 NNW 3   Clear   46 32     57% 45            
May 11 18:11 WNW 10   Clear   56 29     36%              
May 11 15:11 N 16   Clear   63 19     18%              
Notice The following observation data may not be complete
May 11 12:11     Clear            %              
Jun 08 16:11 WSW 15   Clear   69 39     33%              
Jun 05 20:11 NNE 3   Clear   72 35     26%   70          
Jun 05 15:11 SW 5   Clear   85 25     11%   82